Pagina principale
METAR-TAF:

METAR-TAF

Aeroporti :

Angers, Francia

latitudine: 47-33-37N, longitudine: 000-18-44W, altezza: 59 m

Osservazione

Il bollettino è stato emesso 28 minuti fa, alle 00:30 UTC
Vento 6 kt da nord
Temperature 15°C
Umidità 72%
Pressione 1024 hPa
Visibilità 10 km o più
nessuna nube inferiore a 1500 m e nessun cumulonembo

METAR: LFJR 130030Z AUTO 01006KT CAVOK 15/10 Q1024

Ora: 02:58 (00:58 UTC)


TAF: mancante

Osservazioni e previsioni meteorologiche di più di 4000 aeroporti (messaggi METAR e TAF).

Le stazioni disponibili sono rappresentate dai dischi gialli e rossi sulla carta.

Puntare il mouse per vedere il nome della stazione.

Clicca sopra per visualizzare le osservazioni e previsioni meteorologiche.

Per cambiare la mappa : fare clic sui pulsanti verdi con una croce nera per ingrandire, il pulsante verde con un trattino per diminuire, o sulla freccia verde per le mappe adiacenti.


METAR-TAF: